Time;durP1;ratioP1;P1;durP2;ratioP2;P2;SDS_P1;SDS_P2;PMS_P1;PMS_P2;Temp;Humidity;BMP_temperature;BMP_pressure;BME280_temperature;BME280_humidity;BME280_pressure;Samples;Min_cycle;Max_cycle;Signal;HPM_P1;HPM_P2
2021/12/09 00:00:18;;;;;;;29.55;11.55;;;;;;;-3.56;84.28;97613.49;1696441;84;25741;-62
2021/12/09 00:02:46;;;;;;;27.45;11.55;;;;;;;-3.58;84.44;97604.88;1696169;83;25512;-61
2021/12/09 00:05:17;;;;;;;22.98;9.73;;;;;;;-3.59;84.39;97601.94;1696337;84;27517;-61
2021/12/09 00:07:49;;;;;;;22.48;8.85;;;;;;;-3.59;84.42;97605.13;1696785;84;25475;-62
2021/12/09 00:10:13;;;;;;;25.32;10.53;;;;;;;-3.65;84.49;97606.39;1696599;83;25508;-61
2021/12/09 00:12:40;;;;;;;41.15;14.60;;;;;;;-3.63;84.65;97604.02;1696528;84;25748;-62
2021/12/09 00:15:08;;;;;;;30.30;11.20;;;;;;;-3.63;84.40;97604.02;1696390;84;25760;-62
2021/12/09 00:17:35;;;;;;;29.65;12.70;;;;;;;-3.63;84.58;97603.47;1696857;84;27431;-62
2021/12/09 00:20:02;;;;;;;26.57;11.30;;;;;;;-3.59;84.51;97603.79;1696174;84;25879;-62
2021/12/09 00:22:29;;;;;;;26.48;11.20;;;;;;;-3.61;84.41;97597.34;1696305;84;25472;-62
2021/12/09 00:24:56;;;;;;;33.50;14.90;;;;;;;-3.59;84.42;97599.25;1696277;84;25816;-62
2021/12/09 00:27:22;;;;;;;23.60;9.83;;;;;;;-3.60;84.42;97592.80;1696312;83;25687;-62
2021/12/09 00:29:49;;;;;;;25.15;9.90;;;;;;;-3.63;84.50;97599.45;1696455;84;27652;-62
2021/12/09 00:32:15;;;;;;;20.35;8.63;;;;;;;-3.62;84.53;97594.39;1696316;83;26316;-62
2021/12/09 00:34:46;;;;;;;30.92;12.05;;;;;;;-3.58;84.52;97601.38;1696175;84;25455;-63
2021/12/09 00:39:52;;;;;;;28.65;11.78;;;;;;;-3.54;84.26;97590.48;1696421;84;25603;-61
2021/12/09 00:42:20;;;;;;;16.65;8.48;;;;;;;-3.56;84.23;97585.89;1695665;83;25685;-61
2021/12/09 00:44:47;;;;;;;26.60;8.15;;;;;;;-3.53;84.43;97586.73;1695866;83;29940;-61
2021/12/09 00:47:14;;;;;;;26.10;11.45;;;;;;;-3.45;84.26;97578.80;1696122;84;25623;-61
2021/12/09 00:49:40;;;;;;;25.30;10.85;;;;;;;-3.46;84.03;97570.46;1696290;83;25807;-62
2021/12/09 00:52:07;;;;;;;29.12;11.03;;;;;;;-3.46;83.95;97573.14;1696389;84;25698;-63
2021/12/09 00:54:35;;;;;;;25.25;11.80;;;;;;;-3.44;84.01;97566.50;1696362;84;27575;-62
2021/12/09 00:57:03;;;;;;;36.17;13.00;;;;;;;-3.41;83.92;97559.82;1696244;83;26049;-62
2021/12/09 00:59:30;;;;;;;24.43;10.00;;;;;;;-3.43;83.94;97564.09;1696604;84;25436;-62
2021/12/09 01:01:57;;;;;;;18.67;8.80;;;;;;;-3.43;84.04;97556.05;1696059;84;25748;-61
2021/12/09 01:04:23;;;;;;;29.50;10.38;;;;;;;-3.40;83.94;97548.86;1696282;84;25611;-64
2021/12/09 01:06:50;;;;;;;23.80;9.35;;;;;;;-3.42;83.82;97550.17;1696679;84;27433;-62
2021/12/09 01:09:18;;;;;;;25.20;10.58;;;;;;;-3.38;83.94;97545.93;1697230;83;25496;-62
2021/12/09 01:11:45;;;;;;;25.75;9.80;;;;;;;-3.35;83.67;97544.61;1724556;83;25721;-61
2021/12/09 01:14:11;;;;;;;29.92;12.13;;;;;;;-3.36;83.81;97539.80;1724099;83;25789;-62
2021/12/09 01:16:38;;;;;;;27.07;11.48;;;;;;;-3.32;83.86;97547.61;1724136;83;25412;-62
2021/12/09 01:19:05;;;;;;;38.95;14.00;;;;;;;-3.31;83.60;97552.45;1724176;83;27460;-61
2021/12/09 01:21:31;;;;;;;27.30;10.95;;;;;;;-3.29;83.66;97541.75;1724070;83;25440;-61
2021/12/09 01:23:57;;;;;;;35.95;15.85;;;;;;;-3.28;83.51;97542.02;1724145;83;25618;-62
2021/12/09 01:26:26;;;;;;;32.42;13.88;;;;;;;-3.30;83.46;97541.48;1724154;83;25824;-61
2021/12/09 01:29:03;;;;;;;26.57;11.80;;;;;;;-3.34;83.62;97547.04;1724273;83;25622;-61
2021/12/09 01:31:35;;;;;;;30.57;10.75;;;;;;;-3.33;83.75;97537.14;1723426;83;25905;-61
2021/12/09 01:34:02;;;;;;;29.98;12.43;;;;;;;-3.30;83.72;97536.64;1723430;83;25747;-61
2021/12/09 01:36:31;;;;;;;30.90;12.90;;;;;;;-3.25;83.71;97534.55;1724088;83;25434;-61
2021/12/09 01:38:58;;;;;;;21.25;8.38;;;;;;;-3.17;83.69;97538.92;1723310;83;25719;-61
2021/12/09 01:41:24;;;;;;;21.33;8.85;;;;;;;-3.16;83.26;97547.79;1724433;83;25430;-62
2021/12/09 01:43:51;;;;;;;26.52;12.18;;;;;;;-3.16;83.34;97543.77;1724076;83;27481;-61
2021/12/09 01:46:22;;;;;;;30.72;12.23;;;;;;;-3.13;83.28;97547.80;1724101;83;25676;-62
2021/12/09 01:48:51;;;;;;;23.07;9.15;;;;;;;-3.10;83.31;97544.63;1724174;83;25484;-62
2021/12/09 01:51:19;;;;;;;13.70;6.55;;;;;;;-3.06;83.20;97541.71;1724129;83;25820;-62
2021/12/09 01:53:47;;;;;;;30.65;12.80;;;;;;;-3.07;83.03;97534.22;1724474;83;25420;-61
2021/12/09 01:56:21;;;;;;;16.17;7.17;;;;;;;-3.04;82.98;97544.95;1724530;83;27421;-61
2021/12/09 01:58:46;;;;;;;21.37;10.18;;;;;;;-3.05;82.83;97539.33;1724027;83;25667;-62
2021/12/09 02:01:12;;;;;;;29.27;12.47;;;;;;;-3.02;82.82;97538.27;1724148;83;25602;-61
2021/12/09 02:03:39;;;;;;;24.95;11.00;;;;;;;-3.06;82.83;97535.01;1724094;83;25746;-62
2021/12/09 02:06:05;;;;;;;28.45;11.70;;;;;;;-3.06;82.99;97543.87;1724280;83;25615;-62
2021/12/09 02:08:32;;;;;;;31.17;12.35;;;;;;;-3.04;83.03;97550.32;1724164;83;27406;-61
2021/12/09 02:10:58;;;;;;;28.27;12.10;;;;;;;-2.98;82.89;97545.81;1723899;83;27050;-61
2021/12/09 02:13:26;;;;;;;26.68;10.90;;;;;;;-3.01;82.85;97545.80;1724212;83;25691;-62
2021/12/09 02:15:54;;;;;;;27.87;11.88;;;;;;;-3.05;82.91;97551.39;1724428;83;25745;-62
2021/12/09 02:18:22;;;;;;;34.03;12.88;;;;;;;-3.06;82.98;97549.75;1724398;83;25620;-61
2021/12/09 02:21:13;;;;;;;19.42;8.80;;;;;;;-3.08;83.01;97544.64;1724531;83;27442;-61
2021/12/09 02:23:44;;;;;;;20.02;8.83;;;;;;;-3.07;83.12;97548.96;1724209;83;25683;-61
2021/12/09 02:26:12;;;;;;;26.00;10.93;;;;;;;-3.08;83.15;97545.98;1724596;83;25729;-61
2021/12/09 02:28:39;;;;;;;17.57;8.85;;;;;;;-3.07;83.15;97542.78;1724072;83;25774;-61
2021/12/09 02:31:05;;;;;;;23.57;10.08;;;;;;;-3.06;83.17;97546.55;1724165;83;25712;-61
2021/12/09 02:33:32;;;;;;;36.00;13.22;;;;;;;-3.00;83.20;97549.30;1724114;83;28371;-62
2021/12/09 02:35:59;;;;;;;25.57;11.22;;;;;;;-2.96;83.14;97551.74;1724264;83;26353;-61
2021/12/09 02:38:26;;;;;;;28.23;11.48;;;;;;;-2.99;82.85;97548.22;1724146;83;25620;-61
2021/12/09 02:40:55;;;;;;;10.93;6.47;;;;;;;-2.99;83.00;97549.56;1724315;83;25887;-61
2021/12/09 02:43:30;;;;;;;22.32;10.13;;;;;;;-2.99;82.94;97545.55;1724238;83;25741;-61
2021/12/09 02:45:59;;;;;;;26.57;12.30;;;;;;;-2.99;82.89;97550.91;1724445;83;27392;-61
2021/12/09 02:48:26;;;;;;;38.17;15.55;;;;;;;-2.97;82.97;97553.60;1724088;83;25491;-61
2021/12/09 02:50:53;;;;;;;33.23;11.80;;;;;;;-2.90;83.12;97550.19;1724238;83;25471;-61
2021/12/09 02:53:20;;;;;;;28.90;11.80;;;;;;;-2.78;82.92;97543.87;1724451;83;25805;-61
2021/12/09 02:55:47;;;;;;;17.75;6.50;;;;;;;-2.73;82.55;97556.00;1724101;83;25606;-60
2021/12/09 02:58:14;;;;;;;17.50;7.15;;;;;;;-2.71;82.28;97562.45;1724440;83;27570;-61
2021/12/09 03:01:05;;;;;;;28.95;12.88;;;;;;;-2.76;82.17;97560.53;1724072;83;25506;-62
2021/12/09 03:03:32;;;;;;;23.27;9.40;;;;;;;-2.79;82.18;97563.71;1720407;83;25463;-61
2021/12/09 03:06:00;;;;;;;23.95;11.53;;;;;;;-2.78;82.41;97562.64;1724220;83;26116;-62
2021/12/09 03:08:35;;;;;;;32.35;13.08;;;;;;;-2.75;82.27;97562.14;1724576;83;25405;-62
2021/12/09 03:11:12;;;;;;;24.57;9.80;;;;;;;-2.72;82.36;97564.31;1710535;83;27475;-61
2021/12/09 03:13:40;;;;;;;24.75;9.98;;;;;;;-2.71;82.24;97560.55;1696526;84;25606;-62
2021/12/09 03:16:07;;;;;;;21.73;9.40;;;;;;;-2.73;82.04;97564.05;1696616;84;25158;-61
2021/12/09 03:18:47;;;;;;;16.80;7.10;;;;;;;-2.79;82.04;97561.82;1696316;84;25754;-61
2021/12/09 03:21:27;;;;;;;13.75;6.33;;;;;;;-2.77;82.18;97557.02;1696774;83;25420;-61
2021/12/09 03:23:55;;;;;;;15.38;5.87;;;;;;;-2.77;82.03;97551.66;1696345;84;29559;-61
2021/12/09 03:26:29;;;;;;;28.80;12.05;;;;;;;-2.74;82.02;97554.91;1696539;84;25689;-61
2021/12/09 03:28:55;;;;;;;17.50;7.75;;;;;;;-2.70;81.98;97550.65;1696336;83;25422;-61
2021/12/09 03:31:22;;;;;;;34.50;12.73;;;;;;;-2.73;81.81;97551.98;1696315;84;25751;-61
2021/12/09 03:33:48;;;;;;;32.67;11.28;;;;;;;-2.78;82.05;97558.09;1696337;84;25636;-61
2021/12/09 03:36:16;;;;;;;32.42;12.73;;;;;;;-2.80;82.15;97560.21;1696250;84;27472;-60
2021/12/09 03:38:43;;;;;;;25.80;10.80;;;;;;;-2.80;81.98;97556.71;1696223;84;25677;-61
2021/12/09 03:41:10;;;;;;;29.05;12.45;;;;;;;-2.83;82.23;97561.23;1696729;84;25427;-61
2021/12/09 03:43:36;;;;;;;17.20;7.62;;;;;;;-2.80;82.19;97563.41;1696292;83;25764;-61
2021/12/09 03:46:04;;;;;;;17.12;8.13;;;;;;;-2.83;81.85;97558.55;1696428;84;25674;-61
2021/12/09 03:48:33;;;;;;;26.23;11.43;;;;;;;-2.87;81.85;97549.41;1696655;83;27391;-61
2021/12/09 03:51:00;;;;;;;28.02;12.60;;;;;;;-2.89;82.00;97559.05;1696412;83;25725;-61
2021/12/09 03:53:26;;;;;;;28.07;11.60;;;;;;;-2.84;82.33;97552.41;1696322;84;25681;-61
2021/12/09 03:55:53;;;;;;;26.75;11.38;;;;;;;-2.77;82.09;97542.80;1696633;84;25751;-61
2021/12/09 03:58:20;;;;;;;35.63;15.65;;;;;;;-2.78;81.93;97547.37;1696359;84;25633;-61
2021/12/09 04:00:48;;;;;;;41.95;15.45;;;;;;;-2.79;81.81;97551.09;1696323;84;27447;-61
2021/12/09 04:03:17;;;;;;;10.95;5.25;;;;;;;-2.78;81.94;97548.71;1696507;83;25433;-61
2021/12/09 04:05:46;;;;;;;53.60;23.90;;;;;;;-2.74;81.79;97554.36;1696354;84;25418;-61
2021/12/09 04:08:14;;;;;;;30.17;15.05;;;;;;;-2.67;81.73;97554.16;1719569;83;26310;-62
2021/12/09 04:10:41;;;;;;;46.18;23.73;;;;;;;-2.66;81.35;97558.45;1725400;83;25665;-61
2021/12/09 04:13:08;;;;;;;35.38;16.05;;;;;;;-2.66;81.43;97546.38;1725040;83;27446;-61
2021/12/09 04:15:34;;;;;;;27.82;15.20;;;;;;;-2.63;81.34;97555.78;1725101;83;25499;-61
2021/12/09 04:18:01;;;;;;;17.32;8.95;;;;;;;-2.63;81.45;97565.17;1725524;83;25665;-61
2021/12/09 04:20:29;;;;;;;25.10;11.28;;;;;;;-2.63;81.49;97555.78;1725162;83;25898;-62
2021/12/09 04:22:56;;;;;;;28.12;11.38;;;;;;;-2.63;81.34;97553.92;1725387;83;25684;-61
2021/12/09 04:25:25;;;;;;;25.32;10.28;;;;;;;-2.60;81.45;97549.91;1725364;83;27435;-62
2021/12/09 04:27:55;;;;;;;13.78;6.10;;;;;;;-2.61;81.15;97538.92;1725286;83;25808;-62
2021/12/09 04:30:24;;;;;;;22.02;10.45;;;;;;;-2.65;81.47;97537.27;1722148;83;25737;-62
2021/12/09 04:32:52;;;;;;;29.82;13.65;;;;;;;-2.71;81.37;97538.31;1724777;83;25698;-61
2021/12/09 04:35:20;;;;;;;22.80;10.40;;;;;;;-2.74;81.60;97544.97;1725064;83;25428;-64
2021/12/09 04:37:48;;;;;;;24.12;10.32;;;;;;;-2.69;81.52;97542.87;1725076;83;27475;-62
2021/12/09 04:40:17;;;;;;;28.32;12.05;;;;;;;-2.72;81.46;97531.31;1724998;83;25610;-62
2021/12/09 04:42:44;;;;;;;26.85;12.03;;;;;;;-2.73;81.75;97535.88;1725036;83;25865;-62
2021/12/09 04:45:11;;;;;;;31.12;12.70;;;;;;;-2.68;81.68;97539.14;1724999;83;25763;-63
2021/12/09 04:47:40;;;;;;;20.68;9.60;;;;;;;-2.63;81.54;97536.49;1725044;83;25407;-62
2021/12/09 04:50:08;;;;;;;25.92;12.58;;;;;;;-2.70;81.38;97532.69;1725087;83;26969;-62
2021/12/09 04:52:35;;;;;;;19.27;8.48;;;;;;;-2.71;81.67;97542.34;1725385;83;25452;-62
2021/12/09 04:55:02;;;;;;;25.32;11.12;;;;;;;-2.70;81.59;97537.23;1724999;83;25699;-61
2021/12/09 04:57:29;;;;;;;26.57;10.65;;;;;;;-2.66;81.73;97539.68;1725048;83;27756;-61
2021/12/09 04:59:55;;;;;;;25.85;12.60;;;;;;;-2.60;81.50;97535.98;1725028;83;25715;-61
2021/12/09 05:02:44;;;;;;;26.68;11.45;;;;;;;-2.58;81.25;97542.44;1725575;83;28002;-62
2021/12/09 05:04:50;;;;;;;30.23;12.18;;;;;;;-2.65;81.30;97547.47;1718527;83;25503;-62
2021/12/09 05:07:16;;;;;;;29.05;12.35;;;;;;;-2.63;81.64;97560.63;1725208;83;25590;-61
2021/12/09 05:09:50;;;;;;;24.60;10.78;;;;;;;-2.61;81.50;97545.63;1725019;83;25847;-61
2021/12/09 05:12:12;;;;;;;28.05;11.80;;;;;;;-2.62;81.52;97536.76;1723852;83;25704;-62
2021/12/09 05:14:39;;;;;;;15.98;8.45;;;;;;;-2.59;81.54;97549.66;1724965;83;27505;-61
2021/12/09 05:17:05;;;;;;;27.95;10.93;;;;;;;-2.59;81.34;97553.69;1724954;83;27134;-61
2021/12/09 05:19:31;;;;;;;23.73;9.28;;;;;;;-2.59;81.22;97540.27;1725374;83;25463;-61
2021/12/09 05:21:58;;;;;;;30.85;13.25;;;;;;;-2.67;81.31;97534.05;1725311;83;26121;-61
2021/12/09 05:24:24;;;;;;;15.58;7.10;;;;;;;-2.68;81.52;97541.83;1725284;83;25652;-61
2021/12/09 05:26:54;;;;;;;19.90;9.83;;;;;;;-2.68;81.50;97542.61;1725077;83;27487;-61
2021/12/09 05:29:22;;;;;;;25.08;10.48;;;;;;;-2.70;81.58;97538.58;1724873;83;25886;-63
2021/12/09 05:32:08;;;;;;;33.55;13.80;;;;;;;-2.68;81.67;97537.80;1725482;83;25480;-61
2021/12/09 05:34:47;;;;;;;32.70;12.13;;;;;;;-2.62;81.66;97541.33;1724975;83;25892;-61
2021/12/09 05:37:21;;;;;;;28.40;11.78;;;;;;;-2.56;81.49;97549.70;1720412;83;25744;-61
2021/12/09 05:39:49;;;;;;;27.40;12.00;;;;;;;-2.54;81.45;97548.38;1725083;83;27486;-61
2021/12/09 05:42:19;;;;;;;16.30;7.33;;;;;;;-2.55;81.46;97560.18;1725273;83;25636;-61
2021/12/09 05:44:47;;;;;;;31.52;13.72;;;;;;;-2.52;81.50;97556.17;1725383;83;25621;-61
2021/12/09 05:47:14;;;;;;;25.43;10.00;;;;;;;-2.52;81.50;97564.22;1725013;83;25812;-61
2021/12/09 05:49:45;;;;;;;24.85;10.90;;;;;;;-2.47;81.38;97566.14;1725479;83;25710;-62
2021/12/09 05:52:13;;;;;;;40.75;18.37;;;;;;;-2.45;81.16;97568.83;1725585;83;32988;-61
2021/12/09 05:54:41;;;;;;;32.70;14.10;;;;;;;-2.42;81.50;97574.23;1725330;83;25736;-62
2021/12/09 05:57:08;;;;;;;28.35;13.13;;;;;;;-2.41;81.21;97580.70;1724937;83;25755;-62
2021/12/09 05:59:40;;;;;;;36.03;15.93;;;;;;;-2.38;81.24;97587.41;1725196;83;25924;-62
2021/12/09 06:02:04;;;;;;;27.85;12.50;;;;;;;-2.41;81.05;97587.92;1724384;83;25703;-62
2021/12/09 06:04:30;;;;;;;15.65;7.75;;;;;;;-2.44;81.23;97584.41;1725303;83;27487;-62
2021/12/09 06:06:57;;;;;;;27.50;13.15;;;;;;;-2.44;81.25;97599.16;1725085;83;25732;-63
2021/12/09 06:09:24;;;;;;;29.80;12.85;;;;;;;-2.43;81.30;97595.41;1725245;83;25601;-61
2021/12/09 06:11:51;;;;;;;34.80;15.88;;;;;;;-2.41;81.32;97607.52;1725267;82;25949;-62
2021/12/09 06:14:18;;;;;;;30.68;14.13;;;;;;;-2.34;81.26;97608.64;1725691;83;25565;-62
2021/12/09 06:16:45;;;;;;;35.25;16.48;;;;;;;-2.34;81.11;97603.27;1725372;83;27666;-62
2021/12/09 06:19:12;;;;;;;32.67;14.70;;;;;;;-2.32;81.00;97601.68;1725433;83;25419;-62
2021/12/09 06:21:39;;;;;;;15.15;6.45;;;;;;;-2.33;81.15;97600.06;1725493;83;25782;-62
2021/12/09 06:24:05;;;;;;;22.77;10.63;;;;;;;-2.33;81.16;97590.67;1725036;83;25801;-62
2021/12/09 06:26:33;;;;;;;23.73;10.25;;;;;;;-2.42;81.13;97579.05;1725430;83;25952;-62
2021/12/09 06:29:00;;;;;;;46.08;19.82;;;;;;;-2.46;81.29;97591.89;1725507;83;27387;-62
2021/12/09 06:31:27;;;;;;;28.40;12.10;;;;;;;-2.45;81.43;97610.97;1725457;83;25499;-62
2021/12/09 06:33:54;;;;;;;24.35;11.97;;;;;;;-2.44;81.39;97621.45;1725238;83;25407;-63
2021/12/09 06:36:21;;;;;;;32.13;14.35;;;;;;;-2.43;81.36;97627.08;1725134;83;25882;-62
2021/12/09 06:38:48;;;;;;;39.45;16.75;;;;;;;-2.39;81.44;97624.69;1725264;83;25708;-62
2021/12/09 06:41:14;;;;;;;19.57;7.67;;;;;;;-2.41;81.23;97618.78;1725196;83;27506;-62
2021/12/09 06:43:41;;;;;;;28.67;11.73;;;;;;;-2.41;81.20;97614.23;1725056;83;25438;-62
2021/12/09 06:46:10;;;;;;;26.37;10.82;;;;;;;-2.42;81.40;97617.17;1725401;83;25665;-62
2021/12/09 06:48:38;;;;;;;47.83;19.50;;;;;;;-2.44;81.38;97619.29;1725136;83;25736;-62
2021/12/09 06:51:06;;;;;;;42.90;15.03;;;;;;;-2.40;81.57;97617.19;1725271;83;25744;-62
2021/12/09 06:53:34;;;;;;;18.90;7.47;;;;;;;-2.36;81.31;97605.39;1725183;83;27431;-62
2021/12/09 06:56:02;;;;;;;30.40;12.23;;;;;;;-2.35;81.20;97613.74;1725408;83;25757;-62
2021/12/09 06:58:28;;;;;;;34.45;14.93;;;;;;;-2.31;81.31;97620.20;1725562;83;25471;-63
2021/12/09 07:00:56;;;;;;;22.73;10.48;;;;;;;-2.27;81.33;97617.83;1725258;83;25698;-62
2021/12/09 07:03:23;;;;;;;28.35;13.10;;;;;;;-2.28;81.04;97618.36;1725538;83;25647;-62
2021/12/09 07:05:52;;;;;;;43.38;19.90;;;;;;;-2.26;81.12;97623.47;1725394;83;27383;-62
2021/12/09 07:08:20;;;;;;;21.30;9.13;;;;;;;-2.21;81.45;97632.92;1725308;83;25704;-62
2021/12/09 07:10:50;;;;;;;26.82;11.97;;;;;;;-2.19;80.87;97625.41;1725637;83;25670;-62
2021/12/09 07:13:16;;;;;;;36.90;15.00;;;;;;;-2.19;80.87;97632.66;1725081;83;25720;-62
2021/12/09 07:15:42;;;;;;;34.05;15.00;;;;;;;-2.16;80.90;97622.20;1725477;83;25491;-63
2021/12/09 07:18:10;;;;;;;35.13;14.47;;;;;;;-2.13;80.84;97616.06;1725350;83;27988;-63
2021/12/09 07:20:36;;;;;;;18.85;8.98;;;;;;;-2.16;80.56;97618.73;1725120;83;25702;-63
2021/12/09 07:23:03;;;;;;;17.70;8.13;;;;;;;-2.21;80.75;97616.00;1725413;83;25710;-63
2021/12/09 07:25:30;;;;;;;38.23;16.07;;;;;;;-2.23;80.78;97620.80;1725219;83;25920;-62
2021/12/09 07:27:57;;;;;;;44.05;22.17;;;;;;;-2.23;80.91;97626.17;1725116;83;25753;-63
2021/12/09 07:30:26;;;;;;;30.17;13.53;;;;;;;-2.20;81.02;97621.11;1725135;83;27534;-62
2021/12/09 07:32:52;;;;;;;33.08;15.68;;;;;;;-2.19;80.94;97633.45;1725288;83;25785;-62
2021/12/09 07:35:18;;;;;;;42.23;16.35;;;;;;;-2.08;81.12;97652.33;1725057;83;25696;-63
2021/12/09 07:37:46;;;;;;;30.62;12.45;;;;;;;-2.00;80.89;97654.55;1725469;83;25970;-63
2021/12/09 07:40:17;;;;;;;31.42;13.10;;;;;;;-1.95;80.26;97642.52;1720786;83;25439;-62
2021/12/09 07:42:44;;;;;;;;;;;;;;;-1.93;80.40;97647.64;1717058;83;29490;-62
2021/12/09 07:45:13;;;;;;;42.25;17.75;;;;;;;-1.84;80.84;97650.09;1713419;83;25416;-63
2021/12/09 07:47:40;;;;;;;51.05;18.62;;;;;;;-1.76;80.43;97651.50;1696255;83;25636;-62
2021/12/09 07:50:13;;;;;;;57.23;20.55;;;;;;;-1.73;80.47;97651.54;1696386;83;25929;-62
2021/12/09 07:52:39;;;;;;;31.20;13.58;;;;;;;-1.64;80.48;97662.08;1695830;83;25685;-63
2021/12/09 07:55:07;;;;;;;33.63;13.93;;;;;;;-1.64;79.71;97656.71;1696204;84;27435;-63
2021/12/09 07:57:35;;;;;;;35.70;16.75;;;;;;;-1.75;79.77;97665.23;1696411;83;25866;-63
2021/12/09 08:00:08;;;;;;;23.87;10.08;;;;;;;-1.73;80.19;97664.42;1695933;84;25663;-64
2021/12/09 08:02:35;;;;;;;45.55;21.05;;;;;;;-1.77;79.81;97650.71;1696368;83;25747;-64
2021/12/09 08:05:03;;;;;;;20.55;8.90;;;;;;;-1.80;80.11;97645.03;1696322;84;25445;-64
2021/12/09 08:07:30;;;;;;;28.00;13.38;;;;;;;-1.83;80.07;97637.49;1696197;84;27428;-63
2021/12/09 08:09:56;;;;;;;39.20;16.23;;;;;;;-1.88;80.27;97630.20;1696081;84;25717;-65
2021/12/09 08:12:23;;;;;;;40.43;16.73;;;;;;;-1.95;80.57;97619.70;1707404;83;25460;-63
2021/12/09 08:14:50;;;;;;;44.50;18.17;;;;;;;-1.88;80.75;97636.13;1724159;83;25930;-63
2021/12/09 08:20:07;;;;;;;30.57;13.48;;;;;;;-1.77;80.46;97625.20;1724085;83;25817;-63
2021/12/09 08:22:35;;;;;;;41.55;14.70;;;;;;;-1.79;80.09;97627.31;1724264;83;25772;-62
2021/12/09 08:25:07;;;;;;;25.50;10.28;;;;;;;-1.78;80.09;97641.56;1724369;83;25510;-63
2021/12/09 08:27:35;;;;;;;26.40;12.58;;;;;;;-1.75;80.16;97646.95;1724002;83;25472;-63
2021/12/09 08:30:06;;;;;;;37.48;14.68;;;;;;;-1.71;80.35;97644.83;1724378;83;25779;-63
2021/12/09 08:32:34;;;;;;;24.18;11.68;;;;;;;-1.65;80.17;97652.38;1723950;83;28729;-62
2021/12/09 08:35:01;;;;;;;16.87;7.60;;;;;;;-1.61;79.71;97648.13;1724379;83;25926;-62
2021/12/09 08:37:29;;;;;;;59.20;20.57;;;;;;;-1.60;79.62;97644.89;1724141;83;25616;-63
2021/12/09 08:39:58;;;;;;;40.20;16.00;;;;;;;-1.61;79.64;97632.02;1724017;83;25760;-63
2021/12/09 08:42:25;;;;;;;40.03;15.18;;;;;;;-1.60;79.82;97636.31;1724097;83;25654;-63
2021/12/09 08:44:54;;;;;;;51.48;21.00;;;;;;;-1.64;79.85;97619.89;1724085;83;27534;-63
2021/12/09 08:47:21;;;;;;;37.63;14.73;;;;;;;-1.50;80.68;97628.04;1724441;83;25629;-62
2021/12/09 08:49:48;;;;;;;65.45;23.10;;;;;;;-1.41;79.72;97633.98;1724214;83;25715;-64
2021/12/09 08:52:15;;;;;;;71.57;22.48;;;;;;;-1.42;79.36;97633.73;1724027;83;25739;-63
2021/12/09 08:54:42;;;;;;;46.18;19.40;;;;;;;-1.41;79.47;97643.39;1724292;83;25427;-63
2021/12/09 08:57:11;;;;;;;35.95;11.95;;;;;;;-1.35;79.84;97638.87;1724025;83;27436;-63
2021/12/09 08:59:38;;;;;;;32.05;14.15;;;;;;;-1.28;79.26;97645.34;1724079;83;25419;-64
2021/12/09 09:02:06;;;;;;;28.87;11.57;;;;;;;-1.25;79.13;97636.77;1724256;83;25577;-63
2021/12/09 09:04:33;;;;;;;28.52;11.73;;;;;;;-1.29;78.90;97623.02;1724053;83;25740;-63
2021/12/09 09:07:02;;;;;;;34.50;15.10;;;;;;;-1.36;79.13;97613.61;1724278;83;25411;-63
2021/12/09 09:09:34;;;;;;;48.38;16.93;;;;;;;-1.37;79.25;97620.03;1724151;83;27432;-62
2021/12/09 09:11:58;;;;;;;43.17;17.15;;;;;;;-1.29;79.32;97614.17;1723375;83;25709;-63
2021/12/09 09:14:25;;;;;;;40.60;16.87;;;;;;;-1.33;79.30;97601.78;1724175;83;25614;-62
2021/12/09 09:16:52;;;;;;;49.70;20.88;;;;;;;-1.18;79.78;97607.75;1724213;83;25862;-62
2021/12/09 09:19:18;;;;;;;42.75;17.90;;;;;;;-1.12;79.21;97601.88;1724278;83;25474;-65
2021/12/09 09:21:45;;;;;;;59.95;22.58;;;;;;;-1.04;79.19;97603.23;1724046;83;27376;-62
2021/12/09 09:24:12;;;;;;;55.80;22.65;;;;;;;-1.05;79.13;97605.66;1724033;83;25632;-63
2021/12/09 09:26:39;;;;;;;61.92;20.40;;;;;;;-0.89;79.73;97630.18;1724067;83;25550;-64
2021/12/09 09:29:06;;;;;;;56.68;18.67;;;;;;;-0.69;79.55;97629.18;1724470;83;26607;-62
2021/12/09 09:31:33;;;;;;;24.60;8.83;;;;;;;-0.54;78.70;97624.36;1724332;83;25414;-62
2021/12/09 09:34:06;;;;;;;35.63;15.75;;;;;;;-0.55;77.60;97612.78;1724365;83;27652;-62
2021/12/09 09:36:31;;;;;;;34.75;14.83;;;;;;;-0.53;78.80;97621.94;1722296;83;25446;-62
2021/12/09 09:39:11;;;;;;;32.93;13.98;;;;;;;-0.47;78.05;97620.87;1724281;83;25466;-63
2021/12/09 09:41:34;;;;;;;78.40;29.20;;;;;;;-0.46;77.45;97614.41;1722573;83;25431;-63
2021/12/09 09:44:12;;;;;;;52.50;20.80;;;;;;;-0.46;78.42;97618.44;1724707;83;25415;-63
2021/12/09 09:46:31;;;;;;;41.08;16.62;;;;;;;-0.43;77.29;97605.80;1722077;83;26984;-63
2021/12/09 09:49:01;;;;;;;42.62;18.20;;;;;;;-0.51;77.27;97592.88;1724225;83;25568;-62
2021/12/09 09:51:30;;;;;;;42.10;16.85;;;;;;;-0.57;77.71;97588.03;1724390;83;25743;-63
2021/12/09 09:53:57;;;;;;;44.85;19.23;;;;;;;-0.62;77.44;97585.85;1724390;83;25687;-63
2021/12/09 09:56:25;;;;;;;44.10;17.40;;;;;;;-0.60;78.22;97586.41;1724184;83;25712;-63
2021/12/09 09:58:57;;;;;;;37.88;15.85;;;;;;;-0.51;78.00;97584.25;1724475;83;27396;-62
2021/12/09 10:01:26;;;;;;;41.77;17.82;;;;;;;-0.51;77.25;97588.84;1725165;82;25736;-64
2021/12/09 10:04:09;;;;;;;48.38;19.62;;;;;;;-0.49;77.37;97599.34;1731079;82;25510;-63
2021/12/09 10:06:23;;;;;;;28.25;10.98;;;;;;;-0.53;77.33;97583.73;1726696;82;25655;-64
2021/12/09 10:08:50;;;;;;;45.70;16.85;;;;;;;-0.61;76.80;97583.45;1731776;82;25694;-66
2021/12/09 10:11:17;;;;;;;34.95;14.40;;;;;;;-0.65;77.40;97572.41;1731308;82;27261;-66
2021/12/09 10:13:45;;;;;;;19.73;9.43;;;;;;;-0.68;77.13;97576.97;1705281;83;25632;-62
2021/12/09 10:16:25;;;;;;;30.35;12.65;;;;;;;-0.72;77.27;97584.76;1696355;84;25685;-63
2021/12/09 10:18:54;;;;;;;48.48;17.82;;;;;;;-0.72;77.49;97583.97;1696613;84;25847;-63
2021/12/09 10:21:26;;;;;;;40.40;16.12;;;;;;;-0.65;77.65;97581.82;1696803;84;25686;-64
2021/12/09 10:24:01;;;;;;;;;;;;;;;-0.61;77.60;97568.66;1699402;83;27375;-62
2021/12/09 10:26:41;;;;;;;48.50;18.25;;;;;;;-0.62;77.14;97571.05;1693891;83;25762;-63
2021/12/09 10:29:19;;;;;;;51.40;16.85;;;;;;;-0.69;77.47;97564.05;1696620;83;25408;-63
2021/12/09 10:31:54;;;;;;;32.75;13.45;;;;;;;-0.61;77.62;97560.58;1696219;84;25453;-62
2021/12/09 10:34:41;;;;;;;33.63;12.85;;;;;;;-0.53;77.10;97550.61;1696334;83;25627;-63
2021/12/09 10:37:21;;;;;;;41.25;15.65;;;;;;;-0.49;77.25;97541.47;1696846;83;27473;-62
2021/12/09 10:39:52;;;;;;;43.55;17.25;;;;;;;-0.40;77.20;97536.62;1696713;84;25428;-62
2021/12/09 10:42:33;;;;;;;44.85;16.93;;;;;;;-0.31;77.11;97546.33;1696455;83;25661;-63
2021/12/09 10:45:16;;;;;;;43.05;16.80;;;;;;;-0.17;77.37;97545.78;1696900;83;26604;-62
2021/12/09 10:47:57;;;;;;;63.08;27.58;;;;;;;-0.10;77.31;97550.34;1696544;83;25589;-62
2021/12/09 10:50:39;;;;;;;313.10;86.28;;;;;;;0.04;77.29;97541.17;1684148;84;26330;-62
2021/12/09 10:56:05;;;;;;;97.05;32.17;;;;;;;0.30;77.19;97534.38;1696792;83;25452;-62
2021/12/09 10:58:40;;;;;;;53.73;21.23;;;;;;;0.27;76.01;97534.11;1696552;84;25997;-63
2021/12/09 11:01:13;;;;;;;45.52;18.35;;;;;;;0.21;76.31;97540.88;1696579;83;25688;-62
2021/12/09 11:03:50;;;;;;;33.67;14.87;;;;;;;0.18;76.56;97537.38;1696638;83;28391;-61
2021/12/09 11:06:33;;;;;;;70.90;25.00;;;;;;;0.20;76.07;97536.55;1696531;84;25464;-62
2021/12/09 11:09:06;;;;;;;60.40;23.80;;;;;;;0.14;75.90;97537.63;1696592;83;25685;-61
2021/12/09 11:11:37;;;;;;;210.35;54.10;;;;;;;0.06;76.45;97538.98;1696354;83;25625;-62
2021/12/09 11:14:09;;;;;;;;;;;;;;;0.10;76.87;97529.30;1717775;83;25605;-62
2021/12/09 11:16:41;;;;;;;67.78;25.75;;;;;;;0.15;76.20;97535.75;1723991;83;25944;-64
2021/12/09 11:19:17;;;;;;;38.53;15.70;;;;;;;0.08;76.48;97543.58;1724100;83;25510;-63
2021/12/09 11:21:54;;;;;;;45.98;17.45;;;;;;;0.12;76.75;97547.33;1723797;83;25446;-62
2021/12/09 11:24:20;;;;;;;44.10;17.30;;;;;;;0.04;75.92;97546.56;1723053;83;25716;-63
2021/12/09 11:27:01;;;;;;;85.40;31.73;;;;;;;-0.06;75.92;97552.75;1724379;83;25391;-62
2021/12/09 11:29:46;;;;;;;32.63;13.53;;;;;;;-0.08;76.45;97546.03;1724203;83;26344;-62
2021/12/09 11:35:01;;;;;;;48.23;20.48;;;;;;;-0.18;76.18;97525.29;1724554;83;25709;-62
2021/12/09 11:40:01;;;;;;;;;;;;;;;-0.34;76.45;97525.33;1727165;83;25682;-62